sensor_id;sensor_type;location;lat;lon;timestamp;pressure;altitude;pressure_sealevel;temperature;humidity
57791;BME280;43621;51.798;21.588;2022-12-24T00:03:20;98888.70;;;5.93;75.27
57791;BME280;43621;51.798;21.588;2022-12-24T00:07:22;98888.32;;;5.81;75.61
57791;BME280;43621;51.798;21.588;2022-12-24T00:11:24;98887.98;;;5.75;75.72
57791;BME280;43621;51.798;21.588;2022-12-24T00:15:25;98885.89;;;5.77;76.17
57791;BME280;43621;51.798;21.588;2022-12-24T00:19:27;98869.81;;;5.87;76.32
57791;BME280;43621;51.798;21.588;2022-12-24T00:23:29;98896.56;;;5.98;76.34
57791;BME280;43621;51.798;21.588;2022-12-24T00:27:31;98908.11;;;6.06;76.31
57791;BME280;43621;51.798;21.588;2022-12-24T00:31:32;98911.00;;;6.13;76.19
57791;BME280;43621;51.798;21.588;2022-12-24T00:35:35;98910.61;;;6.11;75.85
57791;BME280;43621;51.798;21.588;2022-12-24T00:39:37;98900.94;;;6.03;75.62
57791;BME280;43621;51.798;21.588;2022-12-24T00:43:39;98902.15;;;5.96;75.83
57791;BME280;43621;51.798;21.588;2022-12-24T00:47:40;98894.48;;;5.86;75.70
57791;BME280;43621;51.798;21.588;2022-12-24T00:51:42;98891.74;;;5.78;75.63
57791;BME280;43621;51.798;21.588;2022-12-24T00:55:44;98887.91;;;5.80;75.77
57791;BME280;43621;51.798;21.588;2022-12-24T00:59:46;98888.27;;;5.82;75.65
57791;BME280;43621;51.798;21.588;2022-12-24T01:03:48;98891.89;;;5.78;75.66
57791;BME280;43621;51.798;21.588;2022-12-24T01:07:51;98894.50;;;5.74;75.84
57791;BME280;43621;51.798;21.588;2022-12-24T01:11:54;98889.89;;;5.70;75.97
57791;BME280;43621;51.798;21.588;2022-12-24T01:15:56;98886.84;;;5.63;75.97
57791;BME280;43621;51.798;21.588;2022-12-24T01:19:58;98884.63;;;5.53;75.73
57791;BME280;43621;51.798;21.588;2022-12-24T01:24:00;98877.39;;;5.44;75.71
57791;BME280;43621;51.798;21.588;2022-12-24T01:28:02;98883.85;;;5.42;75.76
57791;BME280;43621;51.798;21.588;2022-12-24T01:32:04;98887.31;;;5.42;75.85
57791;BME280;43621;51.798;21.588;2022-12-24T01:36:06;98886.34;;;5.43;75.93
57791;BME280;43621;51.798;21.588;2022-12-24T01:40:15;98885.89;;;5.46;75.83
57791;BME280;43621;51.798;21.588;2022-12-24T01:44:42;98879.29;;;5.49;75.82
57791;BME280;43621;51.798;21.588;2022-12-24T01:48:57;98876.14;;;5.53;75.94
57791;BME280;43621;51.798;21.588;2022-12-24T01:53:01;98868.61;;;5.54;76.01
57791;BME280;43621;51.798;21.588;2022-12-24T01:57:08;98864.94;;;5.52;76.16
57791;BME280;43621;51.798;21.588;2022-12-24T02:01:10;98864.20;;;5.53;76.37
57791;BME280;43621;51.798;21.588;2022-12-24T02:09:19;98873.80;;;5.54;76.40
57791;BME280;43621;51.798;21.588;2022-12-24T02:13:21;98878.91;;;5.61;76.31
57791;BME280;43621;51.798;21.588;2022-12-24T02:17:31;98882.88;;;5.63;76.16
57791;BME280;43621;51.798;21.588;2022-12-24T02:30:22;98872.63;;;5.71;76.35
57791;BME280;43621;51.798;21.588;2022-12-24T02:34:39;98870.50;;;5.70;76.39
57791;BME280;43621;51.798;21.588;2022-12-24T02:38:56;98871.16;;;5.66;76.50
57791;BME280;43621;51.798;21.588;2022-12-24T02:43:07;98870.50;;;5.62;76.33
57791;BME280;43621;51.798;21.588;2022-12-24T02:47:13;98874.84;;;5.56;76.44
57791;BME280;43621;51.798;21.588;2022-12-24T02:51:16;98875.68;;;5.52;76.45
57791;BME280;43621;51.798;21.588;2022-12-24T02:55:38;98878.73;;;5.43;76.37
57791;BME280;43621;51.798;21.588;2022-12-24T03:12:20;98877.86;;;5.27;77.01
57791;BME280;43621;51.798;21.588;2022-12-24T03:16:26;98885.77;;;5.24;77.04
57791;BME280;43621;51.798;21.588;2022-12-24T03:20:38;98889.18;;;5.18;77.12
57791;BME280;43621;51.798;21.588;2022-12-24T03:24:40;98886.70;;;5.07;77.38
57791;BME280;43621;51.798;21.588;2022-12-24T03:28:43;98884.75;;;5.02;77.44
57791;BME280;43621;51.798;21.588;2022-12-24T03:32:46;98889.88;;;5.10;77.55
57791;BME280;43621;51.798;21.588;2022-12-24T03:36:48;98890.93;;;5.18;77.39
57791;BME280;43621;51.798;21.588;2022-12-24T03:40:50;98888.12;;;5.23;77.42
57791;BME280;43621;51.798;21.588;2022-12-24T03:44:52;98886.51;;;5.24;77.18
57791;BME280;43621;51.798;21.588;2022-12-24T03:48:54;98889.73;;;5.22;77.32
57791;BME280;43621;51.798;21.588;2022-12-24T03:52:56;98887.78;;;5.17;77.45
57791;BME280;43621;51.798;21.588;2022-12-24T03:56:58;98891.88;;;5.09;77.42
57791;BME280;43621;51.798;21.588;2022-12-24T04:01:00;98883.61;;;5.01;77.41
57791;BME280;43621;51.798;21.588;2022-12-24T04:05:02;98883.68;;;5.02;77.51
57791;BME280;43621;51.798;21.588;2022-12-24T04:09:04;98882.18;;;4.99;77.42
57791;BME280;43621;51.798;21.588;2022-12-24T04:13:06;98881.73;;;4.95;77.50
57791;BME280;43621;51.798;21.588;2022-12-24T04:17:08;98882.48;;;4.92;77.78
57791;BME280;43621;51.798;21.588;2022-12-24T04:21:10;98879.32;;;4.86;78.04
57791;BME280;43621;51.798;21.588;2022-12-24T04:25:12;98873.55;;;4.79;78.38
57791;BME280;43621;51.798;21.588;2022-12-24T04:29:14;98875.93;;;4.77;78.40
57791;BME280;43621;51.798;21.588;2022-12-24T04:33:15;98876.80;;;4.79;78.46
57791;BME280;43621;51.798;21.588;2022-12-24T04:37:17;98872.42;;;4.82;78.65
57791;BME280;43621;51.798;21.588;2022-12-24T04:41:21;98874.23;;;4.85;78.53
57791;BME280;43621;51.798;21.588;2022-12-24T04:45:23;98878.05;;;4.91;78.20
57791;BME280;43621;51.798;21.588;2022-12-24T04:49:25;98882.33;;;4.96;78.34
57791;BME280;43621;51.798;21.588;2022-12-24T04:53:26;98878.48;;;4.90;78.48
57791;BME280;43621;51.798;21.588;2022-12-24T04:57:30;98873.80;;;4.78;78.11
57791;BME280;43621;51.798;21.588;2022-12-24T05:01:33;98877.14;;;4.73;78.14
57791;BME280;43621;51.798;21.588;2022-12-24T05:05:35;98876.50;;;4.83;78.35
57791;BME280;43621;51.798;21.588;2022-12-24T05:09:37;98881.08;;;4.98;78.34
57791;BME280;43621;51.798;21.588;2022-12-24T05:13:39;98887.76;;;5.11;78.25
57791;BME280;43621;51.798;21.588;2022-12-24T05:17:42;98894.42;;;5.14;78.13
57791;BME280;43621;51.798;21.588;2022-12-24T05:21:43;98899.83;;;5.11;78.01
57791;BME280;43621;51.798;21.588;2022-12-24T05:26:14;98899.95;;;5.06;78.09
57791;BME280;43621;51.798;21.588;2022-12-24T05:30:22;98897.41;;;4.97;77.93
57791;BME280;43621;51.798;21.588;2022-12-24T05:34:24;98897.09;;;4.97;77.95
57791;BME280;43621;51.798;21.588;2022-12-24T05:38:26;98898.54;;;5.00;77.92
57791;BME280;43621;51.798;21.588;2022-12-24T05:42:28;98898.30;;;5.09;78.00
57791;BME280;43621;51.798;21.588;2022-12-24T05:46:30;98900.98;;;5.18;77.97
57791;BME280;43621;51.798;21.588;2022-12-24T05:50:31;98903.56;;;5.27;77.95
57791;BME280;43621;51.798;21.588;2022-12-24T05:54:33;98910.41;;;5.25;77.79
57791;BME280;43621;51.798;21.588;2022-12-24T05:58:36;98914.21;;;5.15;77.61
57791;BME280;43621;51.798;21.588;2022-12-24T06:02:38;98914.16;;;5.00;77.71
57791;BME280;43621;51.798;21.588;2022-12-24T06:06:40;98919.73;;;4.81;78.01
57791;BME280;43621;51.798;21.588;2022-12-24T06:10:42;98916.38;;;4.69;77.84
57791;BME280;43621;51.798;21.588;2022-12-24T06:14:43;98915.81;;;4.62;78.35
57791;BME280;43621;51.798;21.588;2022-12-24T06:18:45;98914.39;;;4.56;78.45
57791;BME280;43621;51.798;21.588;2022-12-24T06:22:47;98917.23;;;4.55;78.57
57791;BME280;43621;51.798;21.588;2022-12-24T06:26:49;98917.77;;;4.55;78.64
57791;BME280;43621;51.798;21.588;2022-12-24T06:30:51;98917.65;;;4.56;78.94
57791;BME280;43621;51.798;21.588;2022-12-24T06:34:53;98918.99;;;4.55;79.48
57791;BME280;43621;51.798;21.588;2022-12-24T06:38:55;98922.53;;;4.48;79.45
57791;BME280;43621;51.798;21.588;2022-12-24T06:42:57;98921.22;;;4.43;79.42
57791;BME280;43621;51.798;21.588;2022-12-24T06:46:59;98926.60;;;4.38;79.35
57791;BME280;43621;51.798;21.588;2022-12-24T06:51:01;98933.64;;;4.35;79.44
57791;BME280;43621;51.798;21.588;2022-12-24T06:55:04;98935.69;;;4.33;79.24
57791;BME280;43621;51.798;21.588;2022-12-24T06:59:06;98932.06;;;4.33;79.37
57791;BME280;43621;51.798;21.588;2022-12-24T07:03:08;98937.92;;;4.31;79.54
57791;BME280;43621;51.798;21.588;2022-12-24T07:07:10;98942.20;;;4.34;79.46
57791;BME280;43621;51.798;21.588;2022-12-24T07:11:12;98941.44;;;4.35;79.60
57791;BME280;43621;51.798;21.588;2022-12-24T07:15:15;98939.63;;;4.33;79.68
57791;BME280;43621;51.798;21.588;2022-12-24T07:19:20;98945.15;;;4.35;79.57
57791;BME280;43621;51.798;21.588;2022-12-24T07:23:22;98953.52;;;4.41;79.34
57791;BME280;43621;51.798;21.588;2022-12-24T07:27:24;98961.17;;;4.46;79.38
57791;BME280;43621;51.798;21.588;2022-12-24T07:31:26;98961.73;;;4.52;79.17
57791;BME280;43621;51.798;21.588;2022-12-24T07:35:29;98967.09;;;4.56;79.27
57791;BME280;43621;51.798;21.588;2022-12-24T07:39:31;98967.97;;;4.58;79.34
57791;BME280;43621;51.798;21.588;2022-12-24T07:43:33;98970.67;;;4.55;79.24
57791;BME280;43621;51.798;21.588;2022-12-24T07:47:35;98971.59;;;4.52;79.31
57791;BME280;43621;51.798;21.588;2022-12-24T07:51:37;98975.70;;;4.59;79.17
57791;BME280;43621;51.798;21.588;2022-12-24T07:55:39;98978.64;;;4.67;79.01
57791;BME280;43621;51.798;21.588;2022-12-24T07:59:41;98983.83;;;4.71;79.04
57791;BME280;43621;51.798;21.588;2022-12-24T08:03:43;98986.03;;;4.70;79.08
57791;BME280;43621;51.798;21.588;2022-12-24T08:07:45;98988.25;;;4.66;79.15
57791;BME280;43621;51.798;21.588;2022-12-24T08:11:47;98992.77;;;4.64;79.03
57791;BME280;43621;51.798;21.588;2022-12-24T08:15:49;98995.00;;;4.68;78.89
57791;BME280;43621;51.798;21.588;2022-12-24T08:19:51;98998.01;;;4.73;79.03
57791;BME280;43621;51.798;21.588;2022-12-24T08:23:53;99002.48;;;4.77;79.02
57791;BME280;43621;51.798;21.588;2022-12-24T08:27:56;99005.46;;;4.81;79.00
57791;BME280;43621;51.798;21.588;2022-12-24T08:31:58;99005.83;;;4.85;79.14
57791;BME280;43621;51.798;21.588;2022-12-24T08:36:01;99005.09;;;4.90;79.14
57791;BME280;43621;51.798;21.588;2022-12-24T08:40:03;99010.20;;;4.93;79.05
57791;BME280;43621;51.798;21.588;2022-12-24T08:44:05;99016.86;;;5.00;79.06
57791;BME280;43621;51.798;21.588;2022-12-24T08:48:07;99023.95;;;5.08;78.92
57791;BME280;43621;51.798;21.588;2022-12-24T08:52:10;99024.39;;;5.15;79.01
57791;BME280;43621;51.798;21.588;2022-12-24T08:56:12;99028.00;;;5.32;79.16
57791;BME280;43621;51.798;21.588;2022-12-24T09:00:14;99023.84;;;5.48;79.09
57791;BME280;43621;51.798;21.588;2022-12-24T09:04:16;99020.89;;;5.59;78.94
57791;BME280;43621;51.798;21.588;2022-12-24T09:08:19;99024.69;;;5.59;78.62
57791;BME280;43621;51.798;21.588;2022-12-24T09:12:21;99026.66;;;5.46;78.17
57791;BME280;43621;51.798;21.588;2022-12-24T09:16:23;99029.10;;;5.39;78.24
57791;BME280;43621;51.798;21.588;2022-12-24T09:20:25;99027.58;;;5.35;77.98
57791;BME280;43621;51.798;21.588;2022-12-24T09:24:27;99027.60;;;5.39;78.16
57791;BME280;43621;51.798;21.588;2022-12-24T09:28:29;99030.39;;;5.40;78.13
57791;BME280;43621;51.798;21.588;2022-12-24T09:32:32;99038.16;;;5.36;78.04
57791;BME280;43621;51.798;21.588;2022-12-24T09:36:34;99044.46;;;5.30;78.21
57791;BME280;43621;51.798;21.588;2022-12-24T09:40:39;99052.05;;;5.22;78.11
57791;BME280;43621;51.798;21.588;2022-12-24T09:49:05;99047.56;;;5.30;78.20
57791;BME280;43621;51.798;21.588;2022-12-24T09:53:22;99050.13;;;5.36;78.06
57791;BME280;43621;51.798;21.588;2022-12-24T09:57:29;99055.77;;;5.39;78.09
57791;BME280;43621;51.798;21.588;2022-12-24T10:01:33;99057.19;;;5.35;78.04
57791;BME280;43621;51.798;21.588;2022-12-24T10:10:36;99065.59;;;5.21;77.94
57791;BME280;43621;51.798;21.588;2022-12-24T10:19:09;99071.73;;;5.18;78.14
57791;BME280;43621;51.798;21.588;2022-12-24T10:23:27;99078.83;;;5.20;78.15
57791;BME280;43621;51.798;21.588;2022-12-24T10:27:37;99086.88;;;5.29;78.36
57791;BME280;43621;51.798;21.588;2022-12-24T10:31:49;99088.11;;;5.37;78.55
57791;BME280;43621;51.798;21.588;2022-12-24T10:35:55;99089.32;;;5.43;78.54
57791;BME280;43621;51.798;21.588;2022-12-24T10:39:59;99092.73;;;5.44;78.15
57791;BME280;43621;51.798;21.588;2022-12-24T10:44:03;99096.39;;;5.48;77.99
57791;BME280;43621;51.798;21.588;2022-12-24T10:48:10;99101.77;;;5.54;77.89
57791;BME280;43621;51.798;21.588;2022-12-24T10:52:20;99106.57;;;5.63;77.90
57791;BME280;43621;51.798;21.588;2022-12-24T10:56:23;99106.94;;;5.71;77.83
57791;BME280;43621;51.798;21.588;2022-12-24T11:00:24;99110.63;;;5.72;77.71
57791;BME280;43621;51.798;21.588;2022-12-24T11:04:31;99110.71;;;5.71;77.91
57791;BME280;43621;51.798;21.588;2022-12-24T11:08:35;99110.73;;;5.76;77.91
57791;BME280;43621;51.798;21.588;2022-12-24T11:12:47;99109.49;;;5.83;77.88
57791;BME280;43621;51.798;21.588;2022-12-24T11:16:55;99110.83;;;5.96;77.90
57791;BME280;43621;51.798;21.588;2022-12-24T11:20:58;99114.52;;;6.05;77.56
57791;BME280;43621;51.798;21.588;2022-12-24T11:25:18;99113.66;;;6.13;77.45
57791;BME280;43621;51.798;21.588;2022-12-24T11:29:26;99118.46;;;6.18;77.32
57791;BME280;43621;51.798;21.588;2022-12-24T11:33:30;99117.10;;;6.20;77.13
57791;BME280;43621;51.798;21.588;2022-12-24T11:37:32;99119.42;;;6.07;76.86
57791;BME280;43621;51.798;21.588;2022-12-24T11:41:37;99121.33;;;6.03;77.30
57791;BME280;43621;51.798;21.588;2022-12-24T11:45:50;99126.73;;;6.08;77.30
57791;BME280;43621;51.798;21.588;2022-12-24T11:49:53;99134.81;;;6.15;77.18
57791;BME280;43621;51.798;21.588;2022-12-24T11:54:30;99139.89;;;6.19;77.10
57791;BME280;43621;51.798;21.588;2022-12-24T11:58:39;99142.34;;;6.28;76.93
57791;BME280;43621;51.798;21.588;2022-12-24T12:02:43;99153.59;;;6.34;77.00
57791;BME280;43621;51.798;21.588;2022-12-24T12:06:53;99164.17;;;6.34;76.94
57791;BME280;43621;51.798;21.588;2022-12-24T12:10:57;99175.25;;;6.30;77.06
57791;BME280;43621;51.798;21.588;2022-12-24T12:15:04;99181.38;;;6.32;77.12
57791;BME280;43621;51.798;21.588;2022-12-24T12:19:07;99185.05;;;6.35;76.85
57791;BME280;43621;51.798;21.588;2022-12-24T12:31:39;99210.02;;;6.45;76.69
57791;BME280;43621;51.798;21.588;2022-12-24T12:35:43;99218.26;;;6.42;76.68
57791;BME280;43621;51.798;21.588;2022-12-24T12:39:46;99229.37;;;6.36;76.64
57791;BME280;43621;51.798;21.588;2022-12-24T12:44:20;99239.79;;;6.30;76.51
57791;BME280;43621;51.798;21.588;2022-12-24T12:57:23;99254.52;;;6.20;76.09
57791;BME280;43621;51.798;21.588;2022-12-24T13:05:59;99268.79;;;6.00;76.06
57791;BME280;43621;51.798;21.588;2022-12-24T13:23:13;99293.19;;;5.67;76.69
57791;BME280;43621;51.798;21.588;2022-12-24T13:27:23;99298.13;;;5.74;76.75
57791;BME280;43621;51.798;21.588;2022-12-24T13:31:27;99303.92;;;5.82;76.92
57791;BME280;43621;51.798;21.588;2022-12-24T13:35:33;99313.08;;;5.84;76.82
57791;BME280;43621;51.798;21.588;2022-12-24T13:44:13;99326.33;;;5.83;76.95
57791;BME280;43621;51.798;21.588;2022-12-24T13:48:31;99337.98;;;5.83;76.83
57791;BME280;43621;51.798;21.588;2022-12-24T13:52:33;99347.65;;;5.87;76.67
57791;BME280;43621;51.798;21.588;2022-12-24T13:56:36;99350.69;;;5.93;76.65
57791;BME280;43621;51.798;21.588;2022-12-24T14:00:42;99355.87;;;5.99;76.53
57791;BME280;43621;51.798;21.588;2022-12-24T14:04:49;99362.47;;;6.03;76.29
57791;BME280;43621;51.798;21.588;2022-12-24T14:09:03;99371.12;;;6.03;76.52
57791;BME280;43621;51.798;21.588;2022-12-24T14:17:39;99384.53;;;5.98;76.60
57791;BME280;43621;51.798;21.588;2022-12-24T14:25:53;99398.58;;;5.89;76.24
57791;BME280;43621;51.798;21.588;2022-12-24T14:34:08;99420.38;;;5.87;76.02
57791;BME280;43621;51.798;21.588;2022-12-24T14:38:15;99433.84;;;5.88;75.97
57791;BME280;43621;51.798;21.588;2022-12-24T14:47:04;99441.91;;;5.87;76.22
57791;BME280;43621;51.798;21.588;2022-12-24T14:59:30;99463.52;;;5.74;76.23
57791;BME280;43621;51.798;21.588;2022-12-24T15:03:32;99475.48;;;5.72;76.19
57791;BME280;43621;51.798;21.588;2022-12-24T15:07:37;99482.98;;;5.72;76.09
57791;BME280;43621;51.798;21.588;2022-12-24T15:11:43;99485.29;;;5.71;76.02
57791;BME280;43621;51.798;21.588;2022-12-24T15:15:48;99484.53;;;5.69;76.11
57791;BME280;43621;51.798;21.588;2022-12-24T15:19:51;99489.46;;;5.73;76.24
57791;BME280;43621;51.798;21.588;2022-12-24T15:23:54;99502.91;;;5.75;76.14
57791;BME280;43621;51.798;21.588;2022-12-24T15:27:56;99515.61;;;5.70;75.82
57791;BME280;43621;51.798;21.588;2022-12-24T15:32:00;99517.61;;;5.63;75.81
57791;BME280;43621;51.798;21.588;2022-12-24T15:36:06;99517.20;;;5.57;76.04
57791;BME280;43621;51.798;21.588;2022-12-24T15:40:19;99522.34;;;5.56;76.22
57791;BME280;43621;51.798;21.588;2022-12-24T15:44:21;99526.25;;;5.59;76.29
57791;BME280;43621;51.798;21.588;2022-12-24T15:48:28;99530.13;;;5.62;76.18
57791;BME280;43621;51.798;21.588;2022-12-24T15:52:38;99535.00;;;5.68;76.09
57791;BME280;43621;51.798;21.588;2022-12-24T15:56:43;99537.47;;;5.74;76.10
57791;BME280;43621;51.798;21.588;2022-12-24T16:00:59;99543.09;;;5.78;76.17
57791;BME280;43621;51.798;21.588;2022-12-24T16:22:47;99565.53;;;5.59;75.83
57791;BME280;43621;51.798;21.588;2022-12-24T16:26:50;99567.08;;;5.59;75.85
57791;BME280;43621;51.798;21.588;2022-12-24T16:30:53;99568.80;;;5.57;75.79
57791;BME280;43621;51.798;21.588;2022-12-24T16:34:56;99571.51;;;5.49;75.91
57791;BME280;43621;51.798;21.588;2022-12-24T16:38:59;99577.98;;;5.39;75.91
57791;BME280;43621;51.798;21.588;2022-12-24T16:43:20;99577.92;;;5.31;76.11
57791;BME280;43621;51.798;21.588;2022-12-24T16:47:40;99584.79;;;5.29;76.02
57791;BME280;43621;51.798;21.588;2022-12-24T16:51:42;99591.88;;;5.31;76.05
57791;BME280;43621;51.798;21.588;2022-12-24T16:55:45;99595.48;;;5.38;76.08
57791;BME280;43621;51.798;21.588;2022-12-24T16:59:49;99597.86;;;5.46;76.17
57791;BME280;43621;51.798;21.588;2022-12-24T17:03:51;99604.02;;;5.49;76.12
57791;BME280;43621;51.798;21.588;2022-12-24T17:07:53;99611.83;;;5.47;76.18
57791;BME280;43621;51.798;21.588;2022-12-24T17:11:55;99615.77;;;5.47;76.44
57791;BME280;43621;51.798;21.588;2022-12-24T17:15:59;99625.09;;;5.50;76.57
57791;BME280;43621;51.798;21.588;2022-12-24T17:20:02;99636.23;;;5.51;76.19
57791;BME280;43621;51.798;21.588;2022-12-24T17:24:06;99647.77;;;5.55;75.97
57791;BME280;43621;51.798;21.588;2022-12-24T17:28:08;99651.50;;;5.60;75.98
57791;BME280;43621;51.798;21.588;2022-12-24T17:32:10;99658.05;;;5.67;75.93
57791;BME280;43621;51.798;21.588;2022-12-24T17:36:12;99661.40;;;5.69;75.72
57791;BME280;43621;51.798;21.588;2022-12-24T17:40:14;99658.57;;;5.65;75.77
57791;BME280;43621;51.798;21.588;2022-12-24T17:44:15;99659.89;;;5.61;75.89
57791;BME280;43621;51.798;21.588;2022-12-24T17:48:17;99666.35;;;5.56;75.97
57791;BME280;43621;51.798;21.588;2022-12-24T17:52:19;99670.31;;;5.54;75.97
57791;BME280;43621;51.798;21.588;2022-12-24T17:56:21;99675.34;;;5.58;75.95
57791;BME280;43621;51.798;21.588;2022-12-24T18:00:23;99679.20;;;5.64;75.96
57791;BME280;43621;51.798;21.588;2022-12-24T18:04:24;99680.60;;;5.69;75.85
57791;BME280;43621;51.798;21.588;2022-12-24T18:08:26;99684.27;;;5.68;75.78
57791;BME280;43621;51.798;21.588;2022-12-24T18:12:28;99688.02;;;5.62;75.62
57791;BME280;43621;51.798;21.588;2022-12-24T18:16:32;99689.14;;;5.55;75.72
57791;BME280;43621;51.798;21.588;2022-12-24T18:20:35;99694.76;;;5.46;75.73
57791;BME280;43621;51.798;21.588;2022-12-24T18:24:38;99698.53;;;5.44;75.78
57791;BME280;43621;51.798;21.588;2022-12-24T18:28:40;99706.81;;;5.43;75.66
57791;BME280;43621;51.798;21.588;2022-12-24T18:32:42;99718.95;;;5.42;75.71
57791;BME280;43621;51.798;21.588;2022-12-24T18:36:44;99730.34;;;5.43;75.85
57791;BME280;43621;51.798;21.588;2022-12-24T18:40:46;99735.34;;;5.48;75.88
57791;BME280;43621;51.798;21.588;2022-12-24T18:44:48;99733.42;;;5.53;75.76
57791;BME280;43621;51.798;21.588;2022-12-24T18:48:51;99738.45;;;5.55;75.79
57791;BME280;43621;51.798;21.588;2022-12-24T18:52:53;99743.66;;;5.53;75.72
57791;BME280;43621;51.798;21.588;2022-12-24T18:56:55;99744.02;;;5.47;75.65
57791;BME280;43621;51.798;21.588;2022-12-24T19:00:57;99750.55;;;5.41;75.66
57791;BME280;43621;51.798;21.588;2022-12-24T19:04:58;99756.48;;;5.38;75.81
57791;BME280;43621;51.798;21.588;2022-12-24T19:09:01;99758.40;;;5.38;75.71
57791;BME280;43621;51.798;21.588;2022-12-24T19:13:03;99764.30;;;5.38;75.69
57791;BME280;43621;51.798;21.588;2022-12-24T19:17:05;99769.58;;;5.36;75.50
57791;BME280;43621;51.798;21.588;2022-12-24T19:21:08;99768.50;;;5.37;75.65
57791;BME280;43621;51.798;21.588;2022-12-24T19:25:10;99777.70;;;5.41;75.63
57791;BME280;43621;51.798;21.588;2022-12-24T19:29:12;99786.17;;;5.46;75.61
57791;BME280;43621;51.798;21.588;2022-12-24T19:33:14;99787.18;;;5.49;75.71
57791;BME280;43621;51.798;21.588;2022-12-24T19:37:16;99794.60;;;5.42;75.60
57791;BME280;43621;51.798;21.588;2022-12-24T19:41:21;99807.48;;;5.34;75.60
57791;BME280;43621;51.798;21.588;2022-12-24T19:45:23;99812.23;;;5.28;75.86
57791;BME280;43621;51.798;21.588;2022-12-24T19:49:25;99820.35;;;5.26;75.97
57791;BME280;43621;51.798;21.588;2022-12-24T19:53:27;99822.96;;;5.26;75.81
57791;BME280;43621;51.798;21.588;2022-12-24T19:57:29;99824.45;;;5.27;75.46
57791;BME280;43621;51.798;21.588;2022-12-24T20:01:32;99825.56;;;5.26;75.32
57791;BME280;43621;51.798;21.588;2022-12-24T20:05:39;99823.84;;;5.26;75.45
57791;BME280;43621;51.798;21.588;2022-12-24T20:09:41;99826.06;;;5.19;75.55
57791;BME280;43621;51.798;21.588;2022-12-24T20:13:43;99833.27;;;5.05;75.71
57791;BME280;43621;51.798;21.588;2022-12-24T20:17:45;99832.94;;;4.88;75.75
57791;BME280;43621;51.798;21.588;2022-12-24T20:21:52;99829.49;;;4.70;75.93
57791;BME280;43621;51.798;21.588;2022-12-24T20:25:59;99833.21;;;4.57;76.05
57791;BME280;43621;51.798;21.588;2022-12-24T20:30:02;99840.54;;;4.51;76.00
57791;BME280;43621;51.798;21.588;2022-12-24T20:34:04;99848.09;;;4.49;76.06
57791;BME280;43621;51.798;21.588;2022-12-24T20:38:07;99850.35;;;4.46;76.19
57791;BME280;43621;51.798;21.588;2022-12-24T20:42:10;99856.20;;;4.42;76.40
57791;BME280;43621;51.798;21.588;2022-12-24T20:46:12;99865.14;;;4.37;76.56
57791;BME280;43621;51.798;21.588;2022-12-24T20:50:14;99867.86;;;4.38;76.41
57791;BME280;43621;51.798;21.588;2022-12-24T20:54:15;99862.77;;;4.44;76.40
57791;BME280;43621;51.798;21.588;2022-12-24T20:58:18;99863.27;;;4.52;76.43
57791;BME280;43621;51.798;21.588;2022-12-24T21:02:20;99861.71;;;4.54;76.36
57791;BME280;43621;51.798;21.588;2022-12-24T21:06:23;99858.17;;;4.55;76.35
57791;BME280;43621;51.798;21.588;2022-12-24T21:10:25;99862.34;;;4.50;76.32
57791;BME280;43621;51.798;21.588;2022-12-24T21:14:27;99870.09;;;4.46;76.34
57791;BME280;43621;51.798;21.588;2022-12-24T21:18:28;99877.55;;;4.43;76.41
57791;BME280;43621;51.798;21.588;2022-12-24T21:22:30;99882.27;;;4.47;76.41
57791;BME280;43621;51.798;21.588;2022-12-24T21:26:32;99886.00;;;4.56;76.39
57791;BME280;43621;51.798;21.588;2022-12-24T21:30:34;99886.63;;;4.62;76.43
57791;BME280;43621;51.798;21.588;2022-12-24T21:34:36;99893.20;;;4.67;76.56
57791;BME280;43621;51.798;21.588;2022-12-24T21:38:38;99896.41;;;4.70;76.52
57791;BME280;43621;51.798;21.588;2022-12-24T21:42:40;99902.02;;;4.72;76.49
57791;BME280;43621;51.798;21.588;2022-12-24T21:46:42;99910.31;;;4.69;76.39
57791;BME280;43621;51.798;21.588;2022-12-24T21:50:44;99911.08;;;4.70;76.22
57791;BME280;43621;51.798;21.588;2022-12-24T21:54:55;99906.23;;;4.71;75.90
57791;BME280;43621;51.798;21.588;2022-12-24T21:58:57;99908.84;;;4.70;75.95
57791;BME280;43621;51.798;21.588;2022-12-24T22:02:59;99911.23;;;4.73;76.15
57791;BME280;43621;51.798;21.588;2022-12-24T22:07:01;99913.53;;;4.68;76.09
57791;BME280;43621;51.798;21.588;2022-12-24T22:11:21;99907.66;;;4.52;76.06
57791;BME280;43621;51.798;21.588;2022-12-24T22:15:51;99913.64;;;4.36;76.11
57791;BME280;43621;51.798;21.588;2022-12-24T22:19:54;99922.98;;;4.35;76.37
57791;BME280;43621;51.798;21.588;2022-12-24T22:23:55;99925.63;;;4.45;76.37
57791;BME280;43621;51.798;21.588;2022-12-24T22:27:58;99918.40;;;4.55;76.26
57791;BME280;43621;51.798;21.588;2022-12-24T22:31:59;99912.98;;;4.63;76.25
57791;BME280;43621;51.798;21.588;2022-12-24T22:36:04;99910.35;;;4.61;76.18
57791;BME280;43621;51.798;21.588;2022-12-24T22:40:07;99912.45;;;4.56;76.35
57791;BME280;43621;51.798;21.588;2022-12-24T22:44:09;99915.73;;;4.48;76.34
57791;BME280;43621;51.798;21.588;2022-12-24T22:48:11;99925.34;;;4.41;76.28
57791;BME280;43621;51.798;21.588;2022-12-24T22:52:14;99926.86;;;4.39;76.37
57791;BME280;43621;51.798;21.588;2022-12-24T22:56:19;99929.58;;;4.40;76.27
57791;BME280;43621;51.798;21.588;2022-12-24T23:00:54;99933.48;;;4.39;76.43
57791;BME280;43621;51.798;21.588;2022-12-24T23:04:56;99934.83;;;4.29;76.55
57791;BME280;43621;51.798;21.588;2022-12-24T23:08:58;99936.81;;;4.14;76.58
57791;BME280;43621;51.798;21.588;2022-12-24T23:13:00;99933.55;;;4.06;76.51
57791;BME280;43621;51.798;21.588;2022-12-24T23:17:21;99937.46;;;4.07;76.82
57791;BME280;43621;51.798;21.588;2022-12-24T23:21:24;99931.52;;;4.03;77.03
57791;BME280;43621;51.798;21.588;2022-12-24T23:25:26;99930.30;;;3.95;77.30
57791;BME280;43621;51.798;21.588;2022-12-24T23:29:29;99927.89;;;3.89;77.32
57791;BME280;43621;51.798;21.588;2022-12-24T23:33:33;99930.33;;;3.86;77.45
57791;BME280;43621;51.798;21.588;2022-12-24T23:37:35;99932.37;;;3.84;77.39